»·PEaware :: N629J KLAX-KSAN

N629J :: KLAX-KSAN

FLIGHT INFORMATION

Flight Status: Arrived
Operator: Privately registered:
United States
More flights under this callsign
Pilot: Thiago S. (19132)
Aircraft: BEECH AIRCRAFT A90-E90 KING AIR
(BE9L)
More flights by this aircraft type
Origin: KLAX Los Angeles Intl
United States
Destination: KSAN San Diego Intl-Lindbergh
United States
More flights between these airports :: More routes between these airports
Route: +SLI8 SLI SLI171 ALBAS V25 PACIF V208 LAX118 CARDI MZB320 MZB
File this flight plan on PilotEdge
Remarks:
Altitude:
(Current/Filed)
9,000ft
Speed:
(Current/Filed)
210kts
Departed: 21-Feb-19 04:10 PM
Arrived: 21-Feb-19 04:46 PM
Distance/Time
Traveled:
1nm/0:36
Distance/Time
To Go:
Arrived

Flight Plot

Page will automatically refresh every two minutes.

Flight plan parsing failed; only flown route is shown


Map Options




Map Legend


Flown Route
Filed Route
Departure Airport
Arrival Airport
Navaid (VOR, NDB)
Fix

Horizontal Profiles

Position Reports

Time Latitude Longitude Heading Altitude Ground
Speed
21-Feb-19 15:19 33.933687 -118.397089 261 131ft 0kts
21-Feb-19 15:20 33.933687 -118.397089 261 131ft 0kts
21-Feb-19 15:21 33.933687 -118.397089 261 131ft 0kts
21-Feb-19 15:22 33.933687 -118.397089 261 131ft 0kts
21-Feb-19 15:23 33.933687 -118.397089 261 131ft 0kts
21-Feb-19 15:24 33.933687 -118.397089 261 131ft 0kts
21-Feb-19 15:25 33.933687 -118.397089 261 131ft 0kts
21-Feb-19 15:26 33.933687 -118.397089 261 131ft 0kts
21-Feb-19 15:27 33.933687 -118.397089 261 131ft 0kts
21-Feb-19 15:28 33.933687 -118.397089 261 131ft 0kts
21-Feb-19 15:29 33.933687 -118.397089 261 131ft 0kts
21-Feb-19 15:30 33.933687 -118.397089 261 131ft 0kts
21-Feb-19 15:31 33.933687 -118.397089 261 131ft 0kts
21-Feb-19 15:32 33.933687 -118.397094 261 131ft 0kts
21-Feb-19 15:33 33.933686 -118.397098 261 131ft 0kts
21-Feb-19 15:34 33.933686 -118.397101 261 131ft 0kts
21-Feb-19 15:35 33.933686 -118.397104 261 131ft 0kts
21-Feb-19 15:36 33.933685 -118.397108 261 131ft 0kts
21-Feb-19 15:37 33.933685 -118.397111 261 131ft 0kts
21-Feb-19 15:38 33.933684 -118.397115 261 131ft 0kts
21-Feb-19 15:39 33.933684 -118.397118 261 131ft 0kts
21-Feb-19 15:40 33.933683 -118.397121 261 131ft 0kts
21-Feb-19 15:41 33.933683 -118.397125 261 131ft 0kts
21-Feb-19 15:42 33.933683 -118.397128 261 131ft 0kts
21-Feb-19 15:43 33.933682 -118.397131 261 131ft 0kts
21-Feb-19 15:44 33.933682 -118.397135 261 131ft 0kts
21-Feb-19 15:45 33.933681 -118.397138 261 131ft 0kts
21-Feb-19 15:46 33.933681 -118.397142 261 131ft 0kts
21-Feb-19 15:47 33.933680 -118.397145 261 131ft 0kts
21-Feb-19 15:48 33.933680 -118.397148 261 131ft 0kts
21-Feb-19 15:49 33.933679 -118.397152 261 131ft 0kts
21-Feb-19 15:50 33.933679 -118.397155 260 131ft 0kts
21-Feb-19 15:51 33.933679 -118.397159 260 131ft 0kts
21-Feb-19 15:52 33.933678 -118.397162 260 131ft 0kts
21-Feb-19 15:53 33.933678 -118.397165 260 131ft 0kts
21-Feb-19 15:54 33.933677 -118.397169 260 131ft 0kts
21-Feb-19 15:55 33.933677 -118.397172 260 131ft 0kts
21-Feb-19 15:57 33.933676 -118.397175 260 131ft 0kts
21-Feb-19 15:58 33.933676 -118.397179 260 131ft 0kts
21-Feb-19 15:59 33.933680 -118.397287 288 131ft 2kts
21-Feb-19 16:00 33.934282 -118.398270 353 131ft 7kts
21-Feb-19 16:01 33.934799 -118.395652 82 131ft 11kts
21-Feb-19 16:02 33.935232 -118.391348 81 131ft 15kts
21-Feb-19 16:03 33.935591 -118.386917 74 131ft 8kts
21-Feb-19 16:04 33.936092 -118.383230 64 131ft 9kts
21-Feb-19 16:05 33.936360 -118.382929 17 131ft 0kts
21-Feb-19 16:06 33.936363 -118.382929 17 131ft 0kts
21-Feb-19 16:07 33.936365 -118.382928 17 131ft 0kts
21-Feb-19 16:08 33.936367 -118.382927 17 131ft 0kts
21-Feb-19 16:09 33.937265 -118.383590 270 131ft 9kts
21-Feb-19 16:10 33.935178 -118.408406 267 1033ft 112kts
21-Feb-19 16:11 33.932949 -118.451853 265 2203ft 137kts
21-Feb-19 16:12 33.912586 -118.488337 214 3227ft 145kts
21-Feb-19 16:13 33.876494 -118.509150 160 4228ft 154kts
21-Feb-19 16:14 33.851009 -118.465203 122 5272ft 169kts
21-Feb-19 16:15 33.827180 -118.414598 122 6284ft 176kts
21-Feb-19 16:15 33.807022 -118.371417 122 7117ft 179kts
21-Feb-19 16:16 33.782148 -118.318610 122 8113ft 184kts
21-Feb-19 16:18 33.751562 -118.254353 122 8976ft 203kts
21-Feb-19 16:19 33.711966 -118.201106 141 8984ft 222kts
21-Feb-19 16:19 33.672302 -118.162485 150 8984ft 219kts
21-Feb-19 16:20 33.620233 -118.123757 152 8977ft 220kts
21-Feb-19 16:21 33.571125 -118.087588 152 8978ft 222kts
21-Feb-19 16:22 33.521834 -118.051436 152 8986ft 226kts
21-Feb-19 16:23 33.467640 -118.011812 152 8989ft 227kts
21-Feb-19 16:24 33.421172 -117.961497 125 8991ft 232kts
21-Feb-19 16:25 33.384182 -117.898098 129 8995ft 230kts
21-Feb-19 16:26 33.345134 -117.837776 131 9002ft 230kts
21-Feb-19 16:27 33.305405 -117.777704 131 9003ft 230kts
21-Feb-19 16:28 33.274601 -117.711081 99 8519ft 249kts
21-Feb-19 16:29 33.271346 -117.626437 91 7516ft 252kts
21-Feb-19 16:30 33.258650 -117.546194 103 6518ft 242kts
21-Feb-19 16:31 33.227857 -117.479445 139 5529ft 230kts
21-Feb-19 16:32 33.183094 -117.428752 140 5119ft 210kts
21-Feb-19 16:33 33.141016 -117.383553 160 5123ft 196kts
21-Feb-19 16:34 33.088763 -117.370198 175 5123ft 191kts
21-Feb-19 16:35 33.039284 -117.361809 173 5124ft 191kts
21-Feb-19 16:36 32.988898 -117.337565 162 5126ft 194kts
21-Feb-19 16:37 32.941502 -117.314383 160 5129ft 195kts
21-Feb-19 16:38 32.892396 -117.286402 159 5134ft 195kts
21-Feb-19 16:39 32.843296 -117.259299 159 5141ft 195kts
21-Feb-19 16:40 32.790625 -117.230596 159 3723ft 207kts
21-Feb-19 16:41 32.748106 -117.190649 96 2267ft 212kts
21-Feb-19 16:42 32.748249 -117.131661 144 1891ft 130kts
21-Feb-19 16:43 32.728360 -117.156098 263 732ft 95kts
21-Feb-19 16:44 32.732784 -117.186368 280 20ft 66kts
21-Feb-19 16:45 32.734819 -117.190467 70 20ft 3kts
21-Feb-19 16:46 32.734019 -117.186953 104 20ft 14kts
21-Feb-19 16:47 32.732692 -117.181626 106 20ft 19kts
21-Feb-19 16:48 32.732006 -117.178673 107 20ft 0kts
21-Feb-19 16:49 32.732546 -117.177092 84 20ft 0kts
21-Feb-19 16:50 32.732514 -117.176843 194 20ft 0kts
21-Feb-19 16:51 32.732514 -117.176844 194 20ft 0kts
21-Feb-19 16:52 33.933689 -118.397086 0 126ft 0kts

Navigation Log

Ident Type
Flight plan parsing failed, navigation log unavailable